createdAt,value
2018-12-17T05:45:56.814Z,24.93
2018-12-17T05:48:25.196Z,23.27
2018-12-17T05:50:53.650Z,23.37
2018-12-17T05:53:22.174Z,28.70
2018-12-17T05:55:50.677Z,33.13
2018-12-17T05:58:19.089Z,27.97
2018-12-17T06:00:47.459Z,27.47
2018-12-17T06:03:16.605Z,27.83
2018-12-17T06:05:45.680Z,29.97
2018-12-17T06:08:14.188Z,29.60
2018-12-17T06:10:43.059Z,28.77
2018-12-17T06:13:11.432Z,27.13
2018-12-17T06:15:39.814Z,24.73
2018-12-17T06:18:08.223Z,22.23
2018-12-17T06:20:36.887Z,22.00
2018-12-17T06:23:05.776Z,22.00
2018-12-17T06:25:34.675Z,23.37
2018-12-17T06:28:03.213Z,24.90
2018-12-17T06:30:31.923Z,24.93
2018-12-17T06:33:00.571Z,24.83
2018-12-17T06:35:29.297Z,25.77
2018-12-17T06:37:57.981Z,25.13
2018-12-17T06:40:26.634Z,24.83
2018-12-17T06:42:55.406Z,24.13
2018-12-17T06:45:24.070Z,24.23
2018-12-17T06:47:52.699Z,24.07
2018-12-17T06:50:21.723Z,23.57
2018-12-17T06:52:50.105Z,23.43
2018-12-17T06:55:19.253Z,22.93
2018-12-17T06:57:48.381Z,23.30
2018-12-17T07:00:16.761Z,23.07
2018-12-17T07:02:45.440Z,25.17
2018-12-17T07:05:13.833Z,23.73
2018-12-17T07:07:42.221Z,24.97
2018-12-17T07:10:10.638Z,24.20
2018-12-17T07:12:39.032Z,26.53
2018-12-17T07:15:07.691Z,26.07
2018-12-17T07:17:36.548Z,26.20
2018-12-17T07:20:05.952Z,25.90
2018-12-17T07:22:34.416Z,26.57
2018-12-17T07:25:03.528Z,25.70
2018-12-17T07:27:31.936Z,25.40
2018-12-17T07:30:00.728Z,25.33
2018-12-17T07:32:29.095Z,25.73
2018-12-17T07:34:58.147Z,25.30
2018-12-17T07:37:26.652Z,25.80
2018-12-17T07:39:55.526Z,24.87
2018-12-17T07:42:24.718Z,25.10
2018-12-17T07:44:53.108Z,25.93
2018-12-17T07:47:21.788Z,25.17
2018-12-17T07:49:50.229Z,26.37
2018-12-17T07:52:19.149Z,27.17
2018-12-17T07:54:48.215Z,26.27
2018-12-17T07:57:16.894Z,26.43
2018-12-17T07:59:45.836Z,25.70
2018-12-17T08:02:14.240Z,26.33
2018-12-17T08:04:42.964Z,26.73
2018-12-17T08:07:11.735Z,26.60
2018-12-17T08:09:40.267Z,25.00
2018-12-17T08:12:09.004Z,23.47
2018-12-17T08:14:37.600Z,25.00
2018-12-17T08:17:06.533Z,24.63
2018-12-17T08:19:35.212Z,23.83
2018-12-17T08:22:03.754Z,24.83
2018-12-17T08:24:32.380Z,26.10
2018-12-17T08:27:00.818Z,25.53
2018-12-17T08:29:29.206Z,26.03
2018-12-17T08:31:57.855Z,25.27
2018-12-17T08:34:27.313Z,25.00
2018-12-17T08:36:55.771Z,25.27
2018-12-17T08:39:24.175Z,25.30
2018-12-17T08:41:52.569Z,24.50
2018-12-17T08:44:21.170Z,24.93
2018-12-17T08:46:49.988Z,24.80
2018-12-17T08:49:19.052Z,24.37
2018-12-17T08:51:47.476Z,23.90
2018-12-17T08:54:16.032Z,24.70
2018-12-17T08:56:44.946Z,24.33
2018-12-17T08:59:13.678Z,20.37
2018-12-17T09:01:42.772Z,20.10
2018-12-17T09:04:11.652Z,20.87
2018-12-17T09:06:40.214Z,21.20
2018-12-17T09:09:09.677Z,20.90
2018-12-17T09:11:38.042Z,21.43
2018-12-17T09:14:06.511Z,22.13
2018-12-17T09:16:34.926Z,22.80
2018-12-17T09:19:03.865Z,22.20
2018-12-17T09:21:33.090Z,23.83
2018-12-17T09:24:01.788Z,24.87
2018-12-17T09:26:30.322Z,23.47
2018-12-17T09:28:58.825Z,24.03
2018-12-17T09:31:27.252Z,24.53
2018-12-17T09:33:55.879Z,27.13
2018-12-17T09:36:24.308Z,26.23
2018-12-17T09:38:52.754Z,26.10
2018-12-17T09:41:21.449Z,27.70
2018-12-17T09:43:50.138Z,27.50
2018-12-17T09:46:18.562Z,27.00
2018-12-17T09:48:46.984Z,28.13
2018-12-17T09:51:19.606Z,29.80
2018-12-17T09:53:46.578Z,31.43
2018-12-17T09:56:15.287Z,31.60
2018-12-17T09:58:43.695Z,29.97
2018-12-17T10:01:12.157Z,30.03
2018-12-17T10:03:41.869Z,31.67
2018-12-17T10:06:11.378Z,30.40
2018-12-17T10:08:40.808Z,31.70
2018-12-17T10:11:09.705Z,28.43
2018-12-17T10:13:38.458Z,28.63
2018-12-17T10:16:06.975Z,30.70
2018-12-17T10:18:36.988Z,27.90
2018-12-17T10:21:05.785Z,27.93
2018-12-17T10:23:34.591Z,27.60
2018-12-17T10:26:03.390Z,26.97
2018-12-17T10:28:32.210Z,27.27
2018-12-17T10:31:00.642Z,28.27
2018-12-17T10:33:30.758Z,28.37
2018-12-17T10:35:59.180Z,27.97
2018-12-17T10:38:28.169Z,27.27
2018-12-17T10:40:56.562Z,27.13
2018-12-17T10:43:25.197Z,24.97
2018-12-17T10:45:53.620Z,25.90
2018-12-17T10:48:23.518Z,25.50
2018-12-17T10:50:52.213Z,27.17
2018-12-17T10:53:20.656Z,27.07
2018-12-17T10:55:49.089Z,24.70
2018-12-17T10:58:18.146Z,25.57
2018-12-17T11:00:52.236Z,26.27
2018-12-17T11:03:40.300Z,26.10
2018-12-17T11:06:14.434Z,24.50
2018-12-17T11:08:43.095Z,23.63
2018-12-17T11:11:11.548Z,25.90
2018-12-17T11:13:39.945Z,25.93
2018-12-17T11:16:08.361Z,25.70
2018-12-17T11:18:37.188Z,24.87
2018-12-17T11:21:05.775Z,25.40
2018-12-17T11:23:34.302Z,24.57
2018-12-17T11:26:03.001Z,25.60
2018-12-17T11:28:31.983Z,23.47
2018-12-17T11:31:00.715Z,22.80
2018-12-17T11:33:29.493Z,21.83
2018-12-17T11:35:58.017Z,20.53
2018-12-17T11:38:27.167Z,19.60
2018-12-17T11:40:56.057Z,17.17
2018-12-17T11:43:25.386Z,16.43
2018-12-17T11:45:53.868Z,15.67
2018-12-17T11:48:25.166Z,13.93
2018-12-17T11:50:53.865Z,13.80
2018-12-17T11:53:22.991Z,13.70
2018-12-17T11:55:51.372Z,13.17
2018-12-17T11:58:20.451Z,12.87
2018-12-17T12:01:06.801Z,13.33
2018-12-17T12:03:39.086Z,13.40
2018-12-17T12:06:13.873Z,13.67
2018-12-17T12:08:38.810Z,12.90
2018-12-17T12:11:07.673Z,14.37
2018-12-17T12:13:36.084Z,14.30
2018-12-17T12:16:04.530Z,13.47
2018-12-17T12:18:33.038Z,14.90
2018-12-17T12:21:02.205Z,15.03
2018-12-17T12:23:30.777Z,14.50
2018-12-17T12:25:59.705Z,14.50
2018-12-17T12:28:28.396Z,14.63
2018-12-17T12:31:00.511Z,14.73
2018-12-17T12:33:28.827Z,14.80
2018-12-17T12:35:57.599Z,15.17
2018-12-17T12:38:26.180Z,14.67
2018-12-17T12:40:54.879Z,14.83
2018-12-17T12:43:23.876Z,15.37
2018-12-17T12:45:53.748Z,15.07
2018-12-17T12:48:22.406Z,16.00
2018-12-17T12:50:53.987Z,15.50
2018-12-17T12:56:17.470Z,15.33
2018-12-17T12:58:46.368Z,15.30
2018-12-17T13:01:14.844Z,14.57
2018-12-17T13:03:44.194Z,15.07
2018-12-17T13:06:12.827Z,14.60
2018-12-17T13:08:41.722Z,14.23
2018-12-17T13:11:10.506Z,14.43
2018-12-17T13:13:38.896Z,15.53
2018-12-17T13:16:07.489Z,15.43
2018-12-17T13:18:36.286Z,15.43
2018-12-17T13:21:04.863Z,14.67
2018-12-17T13:23:33.887Z,15.17
2018-12-17T13:26:02.898Z,17.03
2018-12-17T13:28:31.572Z,17.43
2018-12-17T13:31:00.214Z,17.53
2018-12-17T13:33:29.844Z,15.90
2018-12-17T13:35:58.526Z,16.10
2018-12-17T13:38:26.947Z,16.37
2018-12-17T13:40:55.647Z,15.70
2018-12-17T13:43:24.275Z,14.93
2018-12-17T13:45:53.022Z,15.77
2018-12-17T13:48:22.017Z,15.17
2018-12-17T13:50:51.985Z,16.10
2018-12-17T13:53:26.104Z,15.60
2018-12-17T13:55:54.752Z,15.33
2018-12-17T13:58:23.176Z,14.97
2018-12-17T14:00:51.713Z,15.67
2018-12-17T14:03:20.787Z,16.27
2018-12-17T14:05:49.571Z,16.53
2018-12-17T14:08:17.959Z,15.13
2018-12-17T14:10:50.712Z,14.73
2018-12-17T14:13:19.370Z,14.37
2018-12-17T14:15:54.621Z,13.93
2018-12-17T14:18:29.259Z,14.63
2018-12-17T14:21:03.144Z,15.47
2018-12-17T14:23:31.800Z,13.43
2018-12-17T14:26:00.285Z,14.33
2018-12-17T14:28:28.664Z,13.03
2018-12-17T14:30:57.306Z,13.20
2018-12-17T14:33:26.276Z,12.53
2018-12-17T14:36:01.508Z,13.00
2018-12-17T14:38:30.578Z,13.07
2018-12-17T14:40:59.126Z,12.73
2018-12-17T14:43:27.544Z,12.80
2018-12-17T14:45:56.135Z,14.10
2018-12-17T14:48:24.826Z,14.03
2018-12-17T14:50:53.244Z,13.73
2018-12-17T14:53:22.243Z,18.47
2018-12-17T14:55:51.185Z,18.77
2018-12-17T14:58:19.658Z,16.37
2018-12-17T15:00:48.303Z,14.63
2018-12-17T15:03:17.013Z,16.20
2018-12-17T15:05:45.426Z,13.50
2018-12-17T15:08:14.050Z,14.13
2018-12-17T15:10:42.650Z,13.80
2018-12-17T15:13:11.698Z,13.37
2018-12-17T15:15:40.357Z,14.23
2018-12-17T15:18:09.861Z,13.10
2018-12-17T15:20:38.955Z,12.53
2018-12-17T15:23:07.419Z,13.03
2018-12-17T15:25:36.269Z,13.57
2018-12-17T15:28:04.766Z,13.27
2018-12-17T15:30:33.398Z,12.87
2018-12-17T15:33:02.422Z,14.97
2018-12-17T15:35:31.106Z,14.03
2018-12-17T15:38:00.080Z,15.30
2018-12-17T15:40:28.548Z,14.67
2018-12-17T15:42:56.970Z,13.83
2018-12-17T15:45:25.545Z,14.73
2018-12-17T15:47:54.205Z,13.47
2018-12-17T15:50:22.674Z,15.83
2018-12-17T15:52:51.607Z,15.73
2018-12-17T15:55:20.148Z,19.57
2018-12-17T15:57:49.553Z,19.63
2018-12-17T16:00:18.237Z,15.80
2018-12-17T16:02:46.628Z,15.90
2018-12-17T16:05:15.089Z,16.13
2018-12-17T16:07:43.644Z,16.27
2018-12-17T16:10:12.417Z,15.87
2018-12-17T16:12:41.059Z,18.60
2018-12-17T16:15:09.879Z,20.13
2018-12-17T16:17:39.014Z,19.30
2018-12-17T16:20:07.877Z,15.37
2018-12-17T16:22:36.290Z,17.83
2018-12-17T16:25:05.643Z,18.30
2018-12-17T16:27:34.360Z,17.53
2018-12-17T16:30:02.798Z,15.87
2018-12-17T16:32:31.459Z,16.07
2018-12-17T16:35:00.439Z,16.37
2018-12-17T16:37:28.891Z,15.57
2018-12-17T16:39:58.223Z,16.97
2018-12-17T16:42:26.812Z,15.60
2018-12-17T16:44:55.352Z,14.70
2018-12-17T16:47:24.044Z,15.23
2018-12-17T16:49:52.989Z,16.17
2018-12-17T16:52:22.197Z,16.00
2018-12-17T16:54:50.983Z,16.40
2018-12-17T16:57:19.592Z,16.40
2018-12-17T16:59:48.175Z,16.20
2018-12-17T17:02:16.968Z,17.10
2018-12-17T17:04:45.410Z,16.47
2018-12-17T17:07:14.251Z,19.00
2018-12-17T17:09:43.067Z,17.77
2018-12-17T17:12:11.533Z,17.67
2018-12-17T17:14:40.290Z,16.77
2018-12-17T17:17:09.006Z,17.73
2018-12-17T17:19:37.494Z,17.23
2018-12-17T17:22:06.060Z,18.77
2018-12-17T17:24:34.805Z,20.53
2018-12-17T17:27:03.790Z,21.60
2018-12-17T17:29:32.219Z,19.47
2018-12-17T17:32:00.658Z,20.13
2018-12-17T17:34:29.540Z,20.47
2018-12-17T17:36:58.264Z,19.80
2018-12-17T17:39:27.434Z,18.93
2018-12-17T17:41:56.402Z,18.57
2018-12-17T17:44:25.218Z,18.87
2018-12-17T17:46:54.161Z,20.20
2018-12-17T17:49:22.578Z,19.33
2018-12-17T17:51:51.035Z,18.47
2018-12-17T17:54:19.400Z,16.23
2018-12-17T17:56:48.381Z,14.67
2018-12-17T17:59:17.347Z,12.50
2018-12-17T18:01:46.112Z,11.20
2018-12-17T18:04:14.671Z,10.20
2018-12-17T18:06:43.105Z,9.77
2018-12-17T18:09:11.488Z,9.10
2018-12-17T18:11:40.105Z,9.40
2018-12-17T18:14:08.571Z,9.50
2018-12-17T18:16:36.932Z,10.30
2018-12-17T18:19:05.466Z,10.53
2018-12-17T18:21:33.858Z,10.20
2018-12-17T18:24:02.604Z,10.90
2018-12-17T18:26:31.522Z,10.47
2018-12-17T18:29:00.515Z,10.50
2018-12-17T18:31:28.987Z,10.03
2018-12-17T18:33:57.635Z,10.97
2018-12-17T18:36:26.174Z,9.83
2018-12-17T18:38:55.743Z,10.13
2018-12-17T18:41:24.296Z,9.50
2018-12-17T18:43:52.680Z,10.07
2018-12-17T18:46:21.118Z,9.97
2018-12-17T18:48:49.833Z,9.87
2018-12-17T18:51:18.821Z,10.13
2018-12-17T18:53:47.507Z,10.10
2018-12-17T18:56:16.119Z,9.97
2018-12-17T18:58:44.840Z,10.03
2018-12-17T19:01:13.305Z,10.30
2018-12-17T19:03:42.635Z,10.20
2018-12-17T19:06:11.473Z,10.70
2018-12-17T19:08:40.269Z,11.50
2018-12-17T19:11:09.393Z,11.60
2018-12-17T19:13:37.840Z,12.13
2018-12-17T19:16:06.262Z,12.53
2018-12-17T19:18:34.646Z,12.27
2018-12-17T19:21:03.108Z,13.10
2018-12-17T19:23:31.796Z,14.23
2018-12-17T19:26:00.994Z,14.27
2018-12-17T19:28:30.031Z,15.23
2018-12-17T19:30:58.650Z,14.80
2018-12-17T19:33:27.528Z,15.77
2018-12-17T19:35:56.437Z,17.27
2018-12-17T19:38:24.983Z,18.17
2018-12-17T19:40:53.436Z,18.00
2018-12-17T19:43:22.590Z,17.60
2018-12-17T19:45:51.433Z,18.93
2018-12-17T19:48:20.066Z,17.83
2018-12-17T19:50:48.470Z,18.30
2018-12-17T19:53:17.420Z,18.53
2018-12-17T19:55:46.057Z,18.80
2018-12-17T19:58:14.848Z,18.30
2018-12-17T20:00:43.464Z,17.67
2018-12-17T20:03:12.493Z,17.77
2018-12-17T20:05:41.199Z,17.83
2018-12-17T20:08:10.101Z,18.20
2018-12-17T20:10:38.578Z,18.97
2018-12-17T20:13:06.982Z,19.47
2018-12-17T20:15:35.935Z,19.77
2018-12-17T20:18:05.463Z,20.27
2018-12-17T20:20:34.492Z,19.90
2018-12-17T20:23:03.536Z,19.47
2018-12-17T20:25:32.475Z,19.63
2018-12-17T20:28:00.891Z,18.93
2018-12-17T20:30:29.594Z,19.90
2018-12-17T20:32:58.251Z,19.20
2018-12-17T20:35:27.625Z,18.97
2018-12-17T20:37:56.557Z,18.93
2018-12-17T20:40:25.669Z,19.40
2018-12-17T20:42:54.541Z,19.27
2018-12-17T20:45:23.511Z,19.60
2018-12-17T20:47:52.505Z,19.63
2018-12-17T20:50:21.213Z,20.07
2018-12-17T20:52:49.882Z,20.73
2018-12-17T20:55:18.263Z,20.90
2018-12-17T20:57:46.838Z,19.43
2018-12-17T21:00:16.027Z,19.57
2018-12-17T21:02:50.904Z,19.70
2018-12-17T21:05:19.621Z,20.00
2018-12-17T21:07:48.045Z,19.57
2018-12-17T21:10:19.040Z,20.33
2018-12-17T21:12:48.028Z,21.53
2018-12-17T21:15:16.878Z,21.27
2018-12-17T21:17:45.654Z,21.20
2018-12-17T21:20:15.734Z,21.53
2018-12-17T21:22:44.576Z,20.63
2018-12-17T21:25:13.266Z,21.20
2018-12-17T21:27:42.218Z,25.10
2018-12-17T21:30:10.983Z,22.20
2018-12-17T21:32:39.641Z,20.93
2018-12-17T21:35:08.282Z,19.70
2018-12-17T21:37:36.967Z,20.77
2018-12-17T21:40:06.236Z,20.50
2018-12-17T21:42:34.976Z,20.57
2018-12-17T21:45:04.526Z,19.40
2018-12-17T21:47:33.071Z,19.10
2018-12-17T21:50:01.707Z,19.00
2018-12-17T21:52:30.379Z,18.50
2018-12-17T21:54:59.321Z,22.35
2018-12-17T21:57:28.007Z,19.70
2018-12-17T21:59:56.716Z,18.20
2018-12-17T22:02:25.677Z,18.33
2018-12-17T22:04:54.396Z,18.00
2018-12-17T22:07:23.047Z,16.80
2018-12-17T22:09:51.896Z,17.93
2018-12-17T22:12:20.714Z,18.60
2018-12-17T22:14:49.239Z,18.17
2018-12-17T22:17:17.695Z,19.47
2018-12-17T22:19:46.070Z,18.30
2018-12-17T22:22:14.886Z,18.33
2018-12-17T22:24:43.553Z,17.40
2018-12-17T22:27:11.952Z,18.23
2018-12-17T22:29:40.620Z,18.37
